Time;durP1;ratioP1;P1;durP2;ratioP2;P2;SDS_P1;SDS_P2;PMS_P1;PMS_P2;Temp;Humidity;BMP_temperature;BMP_pressure;BME280_temperature;BME280_humidity;BME280_pressure;Samples;Min_cycle;Max_cycle;Signal;HPM_P1;HPM_P2
2023/05/29 00:01:47;;;;;;;11.40;3.40;;;16.50;99.90;;;;;;5073457;28;20470;-61
2023/05/29 00:04:14;;;;;;;6.03;3.03;;;;;;;;;;5074391;28;20416;-59
2023/05/29 00:06:42;;;;;;;12.17;3.23;;;16.40;99.90;;;;;;5074748;28;20459;-59
2023/05/29 00:09:10;;;;;;;6.70;2.93;;;;;;;;;;5072845;28;20432;-64
2023/05/29 00:11:37;;;;;;;6.27;2.70;;;;;;;;;;5072403;28;20455;-60
2023/05/29 00:14:04;;;;;;;8.43;2.70;;;;;;;;;;5073006;28;20431;-61
2023/05/29 00:16:32;;;;;;;5.43;3.47;;;;;;;;;;5072278;28;20494;-60
2023/05/29 00:18:59;;;;;;;4.13;3.67;;;;;;;;;;5073164;28;20450;-58
2023/05/29 00:21:26;;;;;;;4.53;2.63;;;;;;;;;;5072470;28;20424;-62
2023/05/29 00:23:54;;;;;;;5.90;3.30;;;16.40;99.90;;;;;;5074560;28;20430;-61
2023/05/29 00:26:21;;;;;;;9.40;3.70;;;;;;;;;;5074943;28;20447;-61
2023/05/29 00:28:49;;;;;;;7.93;3.00;;;;;;;;;;5076181;28;20435;-61
2023/05/29 00:31:16;;;;;;;11.87;4.53;;;;;;;;;;5074268;28;20451;-64
2023/05/29 00:33:43;;;;;;;5.33;2.83;;;;;;;;;;5076094;28;20471;-65
2023/05/29 00:36:11;;;;;;;7.80;3.33;;;16.40;99.90;;;;;;5077223;28;20482;-65
2023/05/29 00:38:38;;;;;;;6.27;3.13;;;;;;;;;;5077385;28;20511;-65
2023/05/29 00:41:09;;;;;;;11.23;3.77;;;;;;;;;;5074987;28;20485;-64
2023/05/29 00:43:36;;;;;;;5.10;3.20;;;;;;;;;;5074185;28;20522;-63
2023/05/29 00:46:03;;;;;;;9.37;4.80;;;;;;;;;;5076033;28;20428;-62
2023/05/29 00:48:30;;;;;;;3.93;2.77;;;;;;;;;;5075788;28;20509;-63
2023/05/29 00:50:57;;;;;;;7.47;3.07;;;;;;;;;;5074255;28;20446;-59
2023/05/29 00:53:25;;;;;;;5.40;3.33;;;16.20;99.90;;;;;;5076211;28;20455;-56
2023/05/29 00:55:56;;;;;;;9.53;2.93;;;;;;;;;;5075602;28;20455;-61
2023/05/29 00:58:24;;;;;;;7.90;3.30;;;16.10;99.90;;;;;;5076117;28;20431;-58
2023/05/29 01:00:54;;;;;;;7.63;3.03;;;;;;;;;;5076954;28;20424;-67
2023/05/29 01:03:22;;;;;;;5.90;4.80;;;;;;;;;;5078462;28;20440;-64
2023/05/29 01:05:51;;;;;;;11.07;3.67;;;;;;;;;;5078473;28;20447;-56
2023/05/29 01:08:18;;;;;;;6.53;2.87;;;;;;;;;;5078089;28;20451;-62
2023/05/29 01:10:47;;;;;;;4.87;2.63;;;;;;;;;;5077546;28;20435;-59
2023/05/29 01:13:19;;;;;;;5.80;2.80;;;;;;;;;;5077019;28;20445;-63
2023/05/29 01:15:53;;;;;;;6.90;2.93;;;16.00;99.90;;;;;;5076447;28;20502;-63
2023/05/29 01:18:27;;;;;;;5.73;3.03;;;16.00;99.90;;;;;;5077886;28;20439;-62
2023/05/29 01:21:01;;;;;;;7.43;3.33;;;15.80;99.90;;;;;;5074655;28;20434;-62
2023/05/29 01:24:11;;;;;;;4.70;2.93;;;15.80;99.90;;;;;;5069109;28;20499;-62
2023/05/29 01:26:59;;;;;;;4.30;2.63;;;;;;;;;;5038454;28;20454;-55
2023/05/29 01:29:31;;;;;;;5.70;2.87;;;15.80;99.90;;;;;;5056080;28;20453;-60
2023/05/29 01:31:59;;;;;;;5.63;2.43;;;15.60;99.90;;;;;;5055320;28;20436;-60
2023/05/29 01:34:26;;;;;;;4.73;2.70;;;;;;;;;;5073493;28;20468;-60
2023/05/29 01:36:53;;;;;;;5.13;2.30;;;;;;;;;;5074508;28;20509;-54
2023/05/29 01:39:21;;;;;;;6.40;3.27;;;;;;;;;;5075664;28;20447;-59
2023/05/29 01:41:50;;;;;;;3.50;2.87;;;15.50;99.90;;;;;;5075801;28;20467;-63
2023/05/29 01:44:21;;;;;;;5.80;2.80;;;15.60;99.90;;;;;;5063439;28;20447;-60
2023/05/29 01:46:51;;;;;;;4.33;2.53;;;15.60;99.90;;;;;;5076376;28;20455;-62
2023/05/29 01:49:19;;;;;;;9.73;2.80;;;15.40;99.90;;;;;;5076558;28;20428;-62
2023/05/29 01:51:47;;;;;;;8.63;3.30;;;;;;;;;;5075894;28;20487;-59
2023/05/29 01:54:14;;;;;;;7.90;3.43;;;;;;;;;;5076335;28;20431;-56
2023/05/29 01:56:41;;;;;;;5.37;3.27;;;;;;;;;;5077144;28;20483;-62
2023/05/29 01:59:11;;;;;;;4.97;4.03;;;15.50;99.90;;;;;;5077558;28;20943;-60
2023/05/29 02:01:41;;;;;;;6.23;3.07;;;;;;;;;;5075515;28;20559;-62
2023/05/29 02:04:08;;;;;;;8.33;2.80;;;;;;;;;;5076372;28;20439;-59
2023/05/29 02:06:38;;;;;;;9.00;2.40;;;;;;;;;;5074707;28;20459;-65
2023/05/29 02:09:05;;;;;;;7.73;3.03;;;;;;;;;;5074979;28;20486;-62
2023/05/29 02:11:33;;;;;;;7.43;3.77;;;;;;;;;;5075804;28;20438;-61
2023/05/29 02:14:02;;;;;;;7.00;3.40;;;;;;;;;;5076284;28;20450;-58
2023/05/29 02:16:29;;;;;;;4.53;3.17;;;;;;;;;;5076151;28;20534;-56
2023/05/29 02:18:57;;;;;;;6.63;2.60;;;15.20;99.90;;;;;;5075551;28;20434;-63
2023/05/29 02:21:24;;;;;;;10.70;3.83;;;;;;;;;;5076262;28;20439;-57
2023/05/29 02:23:51;;;;;;;10.60;3.60;;;;;;;;;;5076774;28;20404;-53
2023/05/29 02:26:20;;;;;;;4.20;2.83;;;;;;;;;;5076791;28;20436;-61
2023/05/29 02:28:47;;;;;;;5.67;3.13;;;;;;;;;;5076675;28;20439;-61
2023/05/29 02:31:14;;;;;;;10.23;2.87;;;;;;;;;;5077539;28;20443;-59
2023/05/29 02:33:42;;;;;;;3.50;2.67;;;;;;;;;;5077267;28;20458;-61
2023/05/29 02:36:12;;;;;;;4.10;2.70;;;;;;;;;;5076328;28;20717;-62
2023/05/29 02:38:39;;;;;;;10.60;3.23;;;;;;;;;;5076430;28;20454;-59
2023/05/29 02:41:09;;;;;;;8.27;2.73;;;;;;;;;;5076126;28;20484;-62
2023/05/29 02:43:36;;;;;;;5.27;2.90;;;;;;;;;;5075674;28;20455;-58
2023/05/29 02:46:03;;;;;;;6.73;3.27;;;;;;;;;;5076194;28;20423;-60
2023/05/29 02:48:30;;;;;;;6.87;3.10;;;;;;;;;;5075552;28;20464;-58
2023/05/29 02:50:57;;;;;;;4.80;2.37;;;;;;;;;;5076117;28;20502;-61
2023/05/29 02:53:25;;;;;;;4.60;3.03;;;14.80;99.90;;;;;;5075910;28;20467;-60
2023/05/29 02:55:53;;;;;;;6.33;4.03;;;;;;;;;;5075296;28;20443;-59
2023/05/29 02:58:20;;;;;;;17.10;3.10;;;;;;;;;;5075066;28;20475;-63
2023/05/29 03:00:48;;;;;;;7.07;2.43;;;;;;;;;;5073967;28;20470;-58
2023/05/29 03:03:15;;;;;;;4.10;2.90;;;;;;;;;;5075315;28;20495;-62
2023/05/29 03:05:42;;;;;;;5.07;2.70;;;;;;;;;;5074823;28;20433;-61
2023/05/29 03:08:10;;;;;;;12.67;3.30;;;;;;;;;;5075326;28;20450;-56
2023/05/29 03:10:38;;;;;;;9.63;2.10;;;14.60;99.90;;;;;;5075073;28;20435;-63
2023/05/29 03:13:05;;;;;;;13.00;3.70;;;;;;;;;;5065596;28;20481;-60
2023/05/29 03:15:32;;;;;;;5.93;2.90;;;;;;;;;;5073676;28;20479;-62
2023/05/29 03:18:00;;;;;;;6.63;4.57;;;;;;;;;;5075706;28;20470;-61
2023/05/29 03:20:27;;;;;;;6.57;3.53;;;;;;;;;;5076004;28;20463;-58
2023/05/29 03:22:55;;;;;;;4.97;3.07;;;;;;;;;;5075430;28;20446;-55
2023/05/29 03:25:22;;;;;;;9.53;3.63;;;;;;;;;;5075203;28;20505;-55
2023/05/29 03:27:51;;;;;;;7.87;2.63;;;14.40;99.90;;;;;;5075184;28;20444;-59
2023/05/29 03:30:19;;;;;;;6.40;3.50;;;;;;;;;;5074470;28;20477;-64
2023/05/29 03:32:46;;;;;;;5.40;2.30;;;;;;;;;;5071666;28;20463;-60
2023/05/29 03:35:13;;;;;;;3.90;2.87;;;;;;;;;;5075453;28;20499;-56
2023/05/29 03:37:40;;;;;;;4.63;3.00;;;;;;;;;;5074765;28;20463;-56
2023/05/29 03:40:08;;;;;;;8.90;3.90;;;;;;;;;;5075430;28;20501;-62
2023/05/29 03:42:36;;;;;;;7.77;3.70;;;;;;;;;;5074382;28;20449;-60
2023/05/29 03:45:04;;;;;;;8.10;2.97;;;14.30;99.90;;;;;;5074471;28;20463;-61
2023/05/29 03:47:32;;;;;;;4.77;2.90;;;;;;;;;;5072375;28;20419;-62
2023/05/29 03:49:59;;;;;;;5.97;3.37;;;;;;;;;;5074566;28;20459;-60
2023/05/29 03:52:26;;;;;;;5.37;3.73;;;;;;;;;;5070926;28;20432;-61
2023/05/29 03:54:53;;;;;;;6.60;3.60;;;;;;;;;;5072453;28;20478;-62
2023/05/29 03:57:20;;;;;;;3.67;1.87;;;;;;;;;;5074790;28;20505;-60
2023/05/29 03:59:48;;;;;;;4.60;3.03;;;;;;;;;;5075517;28;20451;-64
2023/05/29 04:02:16;;;;;;;5.73;2.87;;;14.20;99.90;;;;;;5088493;28;20458;-60
2023/05/29 04:04:43;;;;;;;13.40;3.40;;;;;;;;;;5099011;28;20465;-61
2023/05/29 04:07:10;;;;;;;5.03;3.33;;;;;;;;;;5089402;28;20464;-61
2023/05/29 04:09:38;;;;;;;4.00;3.07;;;;;;;;;;5097863;28;20442;-63
2023/05/29 04:12:05;;;;;;;4.00;2.90;;;14.30;99.90;;;;;;5096338;28;20508;-62
2023/05/29 04:14:32;;;;;;;10.93;3.27;;;;;;;;;;5092580;28;20449;-61
2023/05/29 04:17:00;;;;;;;4.90;3.17;;;;;;;;;;5095227;28;20512;-57
2023/05/29 04:19:28;;;;;;;7.23;2.80;;;14.40;99.90;;;;;;5098249;28;20438;-52
2023/05/29 04:21:55;;;;;;;8.47;3.73;;;;;;;;;;5098573;28;20493;-60
2023/05/29 04:24:24;;;;;;;4.47;2.53;;;;;;;;;;5095391;28;20463;-58
2023/05/29 04:26:52;;;;;;;13.50;2.80;;;;;;;;;;5078988;28;20447;-58
2023/05/29 04:29:19;;;;;;;5.00;2.10;;;;;;;;;;5078817;28;20431;-62
2023/05/29 04:31:47;;;;;;;7.93;2.80;;;;;;;;;;5078225;28;20481;-57
2023/05/29 04:34:17;;;;;;;13.43;2.57;;;;;;;;;;5078636;28;20435;-61
2023/05/29 04:36:45;;;;;;;5.03;2.47;;;14.60;99.90;;;;;;5076399;28;20593;-62
2023/05/29 04:39:13;;;;;;;7.13;2.90;;;;;;;;;;5076734;28;20473;-61
2023/05/29 04:41:40;;;;;;;6.07;2.57;;;15.00;99.90;;;;;;5077497;28;20463;-59
2023/05/29 04:44:11;;;;;;;4.50;2.50;;;15.00;99.90;;;;;;5076201;28;20435;-61
2023/05/29 04:46:38;;;;;;;6.30;3.10;;;;;;;;;;5073098;28;20432;-63
2023/05/29 04:49:05;;;;;;;6.53;2.87;;;;;;;;;;5078162;28;20459;-58
2023/05/29 04:51:32;;;;;;;2.40;2.20;;;;;;;;;;5076923;28;20439;-60
2023/05/29 04:54:03;;;;;;;6.27;2.23;;;15.40;99.90;;;;;;5077240;28;20450;-59
2023/05/29 04:56:32;;;;;;;5.07;2.53;;;15.50;99.90;;;;;;5057628;28;20801;-62
2023/05/29 04:58:59;;;;;;;4.50;2.63;;;;;;;;;;5057643;28;20455;-60
2023/05/29 05:01:26;;;;;;;7.83;3.27;;;;;;;;;;5056625;28;20456;-61
2023/05/29 05:03:55;;;;;;;6.70;2.53;;;;;;;;;;5057439;28;20468;-60
2023/05/29 05:06:22;;;;;;;4.73;2.80;;;;;;;;;;5067720;28;20467;-59
2023/05/29 05:08:50;;;;;;;4.33;2.43;;;;;;;;;;5077235;28;20463;-59
2023/05/29 05:11:20;;;;;;;5.00;3.17;;;15.90;99.90;;;;;;5076546;28;20459;-58
2023/05/29 05:13:47;;;;;;;4.30;2.70;;;;;;;;;;5077752;28;20503;-59
2023/05/29 05:16:14;;;;;;;4.87;2.43;;;;;;;;;;5077776;28;20435;-60
2023/05/29 05:18:41;;;;;;;2.60;2.10;;;;;;;;;;5067650;28;20486;-55
2023/05/29 05:21:09;;;;;;;5.00;2.13;;;;;;;;;;5075771;28;20452;-59
2023/05/29 05:23:36;;;;;;;4.33;1.93;;;;;;;;;;5075243;28;20475;-60
2023/05/29 05:26:05;;;;;;;3.33;2.40;;;16.60;99.90;;;;;;5076595;28;20434;-58
2023/05/29 05:28:36;;;;;;;2.13;1.57;;;16.40;99.90;;;;;;5076409;28;20462;-60
2023/05/29 05:31:03;;;;;;;8.13;4.43;;;;;;;;;;5076228;28;20451;-61
2023/05/29 05:33:30;;;;;;;3.60;2.07;;;;;;;;;;5074619;28;20435;-64
2023/05/29 05:35:57;;;;;;;3.27;2.47;;;;;;;;;;5073389;28;20424;-60
2023/05/29 05:38:25;;;;;;;5.27;2.40;;;;;;;;;;5075497;28;20577;-63
2023/05/29 05:40:52;;;;;;;3.63;2.13;;;;;;;;;;5077242;28;20456;-57
2023/05/29 05:43:19;;;;;;;4.70;2.47;;;;;;;;;;5076825;28;20439;-52
2023/05/29 05:45:47;;;;;;;3.87;2.27;;;;;;;;;;5076079;28;20454;-59
2023/05/29 05:48:15;;;;;;;4.23;1.80;;;;;;;;;;5075318;28;20470;-61
2023/05/29 05:50:42;;;;;;;2.40;1.90;;;;;;;;;;5075386;28;20454;-60
2023/05/29 05:53:09;;;;;;;4.77;2.67;;;;;;;;;;5074824;28;20443;-58
2023/05/29 05:55:36;;;;;;;10.50;2.37;;;;;;;;;;5075365;28;20483;-63
2023/05/29 05:58:03;;;;;;;2.97;1.90;;;;;;;;;;5076263;28;20475;-56
2023/05/29 06:00:30;;;;;;;8.63;2.13;;;;;;;;;;5076429;28;20478;-62
2023/05/29 06:03:00;;;;;;;4.30;2.00;;;;;;;;;;5075215;28;20455;-61
2023/05/29 06:05:29;;;;;;;4.50;2.67;;;17.00;99.90;;;;;;5074491;28;20475;-53
2023/05/29 06:07:56;;;;;;;4.10;1.70;;;;;;;;;;5076436;28;20442;-55
2023/05/29 06:10:23;;;;;;;2.37;1.97;;;;;;;;;;5075853;28;20459;-57
2023/05/29 06:12:51;;;;;;;3.47;2.20;;;;;;;;;;5076250;28;20466;-59
2023/05/29 06:15:21;;;;;;;7.63;2.23;;;17.30;99.90;;;;;;5075298;28;20467;-60
2023/05/29 06:17:48;;;;;;;4.80;1.67;;;;;;;;;;5073624;28;20459;-64
2023/05/29 06:20:16;;;;;;;3.00;2.37;;;17.40;99.90;;;;;;5075622;28;20462;-62
2023/05/29 06:22:49;;;;;;;3.53;1.60;;;;;;;;;;5075954;28;20423;-61
2023/05/29 06:25:18;;;;;;;3.97;2.17;;;;;;;;;;5073795;28;20455;-62
2023/05/29 06:27:45;;;;;;;3.57;2.27;;;;;;;;;;5072972;28;20447;-59
2023/05/29 06:30:13;;;;;;;2.43;1.87;;;;;;;;;;5071386;28;20482;-62
2023/05/29 06:32:40;;;;;;;2.37;1.80;;;;;;;;;;5075914;28;20661;-61
2023/05/29 06:35:09;;;;;;;3.87;2.20;;;17.90;99.90;;;;;;5075967;28;20455;-57
2023/05/29 06:37:38;;;;;;;3.10;1.53;;;;;;;;;;5074383;28;20482;-55
2023/05/29 06:40:07;;;;;;;2.20;1.93;;;;;;;;;;5076084;28;20439;-60
2023/05/29 06:42:34;;;;;;;3.47;1.60;;;;;;;;;;5075655;28;20471;-61
2023/05/29 06:45:01;;;;;;;2.80;1.87;;;;;;;;;;5067400;28;20444;-62
2023/05/29 06:47:28;;;;;;;3.30;1.70;;;;;;;;;;5074497;28;20491;-62
2023/05/29 06:49:55;;;;;;;2.60;2.40;;;;;;;;;;5075143;28;20526;-64
2023/05/29 06:52:22;;;;;;;3.00;1.90;;;;;;;;;;5069138;28;20476;-62
2023/05/29 06:54:51;;;;;;;2.70;1.80;;;;;;;;;;5071318;28;20459;-64
2023/05/29 06:57:18;;;;;;;5.70;1.90;;;;;;;;;;5069714;28;20515;-62
2023/05/29 06:59:45;;;;;;;3.23;1.97;;;;;;;;;;5072281;28;20523;-64
2023/05/29 07:02:12;;;;;;;5.73;1.93;;;;;;;;;;5062161;28;20496;-56
2023/05/29 07:04:40;;;;;;;4.10;1.57;;;;;;;;;;5049984;28;20440;-61
2023/05/29 07:07:07;;;;;;;4.50;1.90;;;;;;;;;;5057911;28;20475;-64
2023/05/29 07:09:34;;;;;;;2.23;2.03;;;;;;;;;;5055284;28;20491;-62
2023/05/29 07:12:02;;;;;;;3.40;1.50;;;19.70;99.90;;;;;;5064657;28;20447;-59
2023/05/29 07:14:30;;;;;;;2.67;2.00;;;;;;;;;;5067473;28;20489;-63
2023/05/29 07:16:59;;;;;;;3.17;1.60;;;;;;;;;;5062921;28;20509;-61
2023/05/29 07:19:26;;;;;;;2.67;1.50;;;;;;;;;;5069890;28;20479;-60
2023/05/29 07:21:53;;;;;;;2.37;2.10;;;;;;;;;;5074799;28;20447;-61
2023/05/29 07:24:20;;;;;;;2.20;1.63;;;;;;;;;;5074310;28;20482;-58
2023/05/29 07:26:47;;;;;;;3.00;1.90;;;;;;;;;;5073753;28;20451;-59
2023/05/29 07:29:22;;;;;;;2.67;1.90;;;25.90;82.00;;;;;;5073232;28;20460;-61
2023/05/29 07:31:49;;;;;;;1.73;1.60;;;;;;;;;;5072637;28;20431;-63
2023/05/29 07:34:16;;;;;;;3.10;2.17;;;;;;;;;;5061625;28;20499;-63
2023/05/29 07:36:58;;;;;;;2.07;1.80;;;27.20;82.70;;;;;;5066267;28;20511;-62
2023/05/29 07:39:25;;;;;;;1.97;1.77;;;;;;;;;;5066569;28;20478;-63
2023/05/29 07:41:52;;;;;;;2.40;1.50;;;;;;;;;;5062771;28;20443;-64
2023/05/29 07:44:21;;;;;;;2.20;1.90;;;29.30;60.60;;;;;;5067131;28;20474;-65
2023/05/29 07:46:48;;;;;;;2.23;1.80;;;;;;;;;;5066999;28;20447;-63
2023/05/29 07:49:15;;;;;;;2.60;1.70;;;;;;;;;;5066690;28;20943;-63
2023/05/29 07:51:43;;;;;;;3.10;1.93;;;;;;;;;;5065569;28;20447;-64
2023/05/29 07:54:10;;;;;;;2.83;1.90;;;;;;;;;;5059147;28;20494;-64
2023/05/29 07:56:38;;;;;;;2.23;1.90;;;;;;;;;;5047321;28;20427;-65
2023/05/29 07:59:05;;;;;;;4.87;1.70;;;;;;;;;;5050277;28;20533;-63
2023/05/29 08:01:34;;;;;;;3.50;1.77;;;31.30;90.60;;;;;;5063443;28;20447;-61
2023/05/29 08:04:01;;;;;;;3.33;2.03;;;;;;;;;;5071193;28;20458;-59
2023/05/29 08:06:28;;;;;;;3.00;2.30;;;;;;;;;;5073071;28;20451;-62
2023/05/29 08:08:55;;;;;;;2.27;2.07;;;;;;;;;;5066432;28;20470;-63
2023/05/29 08:11:22;;;;;;;2.90;1.80;;;28.70;86.80;;;;;;5065809;28;20954;-62
2023/05/29 08:13:50;;;;;;;4.20;2.27;;;;;;;;;;5066548;28;20538;-65
2023/05/29 08:16:17;;;;;;;2.30;2.10;;;;;;;;;;5065385;28;20475;-64
2023/05/29 08:18:45;;;;;;;2.77;2.20;;;28.20;78.60;;;;;;5065140;28;20506;-63
2023/05/29 08:21:12;;;;;;;1.90;1.70;;;;;;;;;;5064538;28;20987;-62
2023/05/29 08:23:40;;;;;;;4.10;2.37;;;;;;;;;;5065693;28;20512;-63
2023/05/29 08:26:07;;;;;;;1.90;1.40;;;;;;;;;;5063590;28;20513;-61
2023/05/29 08:28:34;;;;;;;2.60;2.07;;;;;;;;;;5064865;28;20470;-61
2023/05/29 08:31:02;;;;;;;2.10;1.67;;;;;;;;;;5063034;28;20475;-63
2023/05/29 08:33:30;;;;;;;2.50;1.93;;;;;;;;;;5062012;28;20898;-60
2023/05/29 08:35:59;;;;;;;2.67;2.17;;;26.20;60.00;;;;;;5066947;28;20757;-61
2023/05/29 08:38:26;;;;;;;2.63;1.80;;;;;;;;;;5065707;28;20799;-61
2023/05/29 08:40:53;;;;;;;2.00;1.70;;;;;;;;;;5073536;28;20475;-62
2023/05/29 08:43:25;;;;;;;2.53;1.80;;;29.20;54.30;;;;;;5070402;28;20456;-63
2023/05/29 08:45:55;;;;;;;3.03;2.03;;;29.70;54.10;;;;;;5070621;28;20489;-63
2023/05/29 08:48:25;;;;;;;2.80;1.93;;;30.40;52.90;;;;;;5073634;28;20434;-64
2023/05/29 08:50:54;;;;;;;3.80;2.50;;;31.00;52.10;;;;;;5062174;28;20451;-63
2023/05/29 08:53:23;;;;;;;3.00;2.13;;;31.70;89.30;;;;;;5064650;28;20447;-62
2023/05/29 08:55:53;;;;;;;2.57;2.00;;;;;;;;;;5073054;28;20447;-62
2023/05/29 08:58:21;;;;;;;3.07;1.87;;;32.10;46.70;;;;;;5059145;28;20475;-63
2023/05/29 09:00:49;;;;;;;2.90;2.03;;;32.10;49.00;;;;;;5071522;28;20478;-62
2023/05/29 09:03:17;;;;;;;2.80;2.20;;;;;;;;;;5072594;28;20435;-60
2023/05/29 09:05:44;;;;;;;2.23;1.70;;;;;;;;;;5070057;28;20452;-63
2023/05/29 09:08:12;;;;;;;4.10;1.80;;;;;;;;;;5068580;28;20451;-63
2023/05/29 09:10:43;;;;;;;4.40;2.27;;;32.90;47.20;;;;;;5067593;28;20451;-59
2023/05/29 09:13:11;;;;;;;2.83;2.30;;;;;;;;;;5068838;28;20439;-61
2023/05/29 09:15:40;;;;;;;4.43;2.10;;;;;;;;;;5068579;28;20447;-63
2023/05/29 09:18:08;;;;;;;2.90;2.30;;;;;;;;;;5058126;28;20545;-62
2023/05/29 09:20:38;;;;;;;6.93;4.80;;;;;;;;;;5060681;28;20443;-63
2023/05/29 09:23:06;;;;;;;2.27;2.07;;;32.40;48.10;;;;;;5059550;28;20477;-63
2023/05/29 09:25:35;;;;;;;3.10;2.23;;;;;;;;;;5058924;28;20507;-64
2023/05/29 09:28:05;;;;;;;5.23;2.13;;;32.60;45.30;;;;;;5056854;28;20474;-59
2023/05/29 09:30:37;;;;;;;3.87;2.60;;;32.00;43.30;;;;;;5059244;28;20447;-63
2023/05/29 09:33:05;;;;;;;3.10;2.43;;;;;;;;;;5050029;28;20540;-61
2023/05/29 09:35:36;;;;;;;3.20;2.30;;;31.70;45.40;;;;;;5054442;28;20458;-59
2023/05/29 09:38:03;;;;;;;4.80;2.37;;;;;;;;;;5056987;28;20537;-65
2023/05/29 09:40:32;;;;;;;2.50;2.20;;;31.10;50.60;;;;;;5054650;28;20833;-62
2023/05/29 09:43:07;;;;;;;3.63;3.00;;;;;;;;;;5059424;28;20455;-63
2023/05/29 09:45:34;;;;;;;2.97;2.03;;;;;;;;;;5060444;28;20462;-64
2023/05/29 09:48:01;;;;;;;3.80;2.23;;;31.00;89.10;;;;;;5051469;28;20474;-62
2023/05/29 09:50:31;;;;;;;5.23;2.20;;;31.40;49.60;;;;;;5070154;28;20486;-63
2023/05/29 09:52:58;;;;;;;5.43;2.47;;;;;;;;;;5058858;28;20446;-63
2023/05/29 09:55:26;;;;;;;2.60;2.40;;;30.10;51.30;;;;;;5057807;28;20466;-64
2023/05/29 09:57:55;;;;;;;7.80;2.50;;;28.90;53.00;;;;;;5069564;28;20546;-62
2023/05/29 10:00:23;;;;;;;3.90;2.40;;;28.20;54.90;;;;;;5071027;28;20446;-65
2023/05/29 10:02:50;;;;;;;3.73;2.27;;;;;;;;;;5066200;28;20536;-63
2023/05/29 10:05:18;;;;;;;3.40;2.63;;;;;;;;;;5052165;28;20471;-63
2023/05/29 10:07:48;;;;;;;2.90;2.33;;;28.50;53.10;;;;;;5058379;28;20463;-62
2023/05/29 10:10:15;;;;;;;4.50;3.00;;;;;;;;;;5062014;28;20463;-62
2023/05/29 10:12:48;;;;;;;3.50;2.60;;;28.20;54.60;;;;;;5059986;28;20456;-65
2023/05/29 10:15:20;;;;;;;3.60;2.57;;;28.80;52.20;;;;;;5052934;28;20570;-62
2023/05/29 10:17:52;;;;;;;3.00;2.40;;;;;;;;;;5049719;28;20448;-62
2023/05/29 10:20:21;;;;;;;2.50;1.73;;;29.50;53.20;;;;;;5054230;28;20522;-63
2023/05/29 10:22:50;;;;;;;9.33;5.73;;;29.10;52.70;;;;;;5063046;28;20451;-65
2023/05/29 10:25:22;;;;;;;12.13;8.73;;;28.20;54.00;;;;;;5059965;28;20566;-63
2023/05/29 10:27:49;;;;;;;35.27;22.33;;;27.70;55.50;;;;;;5060953;28;20779;-64
2023/05/29 10:30:25;;;;;;;7.10;4.27;;;26.80;56.70;;;;;;5042283;28;20538;-61
2023/05/29 10:33:16;;;;;;;3.60;2.03;;;26.50;57.80;;;;;;5042979;28;20436;-64
2023/05/29 10:35:49;;;;;;;2.60;2.27;;;26.00;57.40;;;;;;5057219;28;20467;-64
2023/05/29 10:38:18;;;;;;;3.10;2.33;;;25.50;58.90;;;;;;5063344;28;20447;-59
2023/05/29 10:40:45;;;;;;;4.33;2.60;;;;;;;;;;5070982;28;20459;-57
2023/05/29 10:43:32;;;;;;;4.67;2.37;;;24.70;60.40;;;;;;5070436;28;20447;-65
2023/05/29 10:45:59;;;;;;;2.70;2.40;;;;;;;;;;5067711;28;20489;-65
2023/05/29 10:48:44;;;;;;;2.80;2.33;;;25.10;62.30;;;;;;5070910;28;20443;-61
2023/05/29 10:51:26;;;;;;;3.47;2.30;;;25.50;59.30;;;;;;5071185;28;20479;-63
2023/05/29 10:53:54;;;;;;;3.20;2.63;;;26.10;55.20;;;;;;5061483;28;20446;-65
2023/05/29 10:56:29;;;;;;;2.97;2.50;;;26.30;57.30;;;;;;5067082;28;20498;-59
2023/05/29 10:58:57;;;;;;;3.40;2.70;;;26.20;52.70;;;;;;5067060;28;20529;-62
2023/05/29 11:01:25;;;;;;;3.40;2.80;;;;;;;;;;5067097;28;20539;-63
2023/05/29 11:04:15;;;;;;;2.30;2.00;;;25.80;56.30;;;;;;5060015;28;20448;-59
2023/05/29 11:06:44;;;;;;;4.13;2.83;;;25.90;57.00;;;;;;5054305;28;21328;-61
2023/05/29 11:09:30;;;;;;;3.50;2.50;;;25.50;58.10;;;;;;5065989;28;20483;-63
2023/05/29 11:12:23;;;;;;;3.70;2.10;;;25.10;53.10;;;;;;5066745;28;20469;-60
2023/05/29 11:14:56;;;;;;;2.47;2.27;;;24.90;59.60;;;;;;5069443;28;20527;-62
2023/05/29 11:17:46;;;;;;;4.63;2.60;;;25.10;55.00;;;;;;5062805;28;20495;-58
2023/05/29 11:20:44;;;;;;;5.37;2.43;;;25.20;53.70;;;;;;5059897;28;20554;-59
2023/05/29 11:23:17;;;;;;;7.60;2.60;;;25.30;58.30;;;;;;5056630;28;20555;-64
2023/05/29 11:25:49;;;;;;;4.63;2.80;;;25.40;58.10;;;;;;5066445;28;20447;-63
2023/05/29 11:28:17;;;;;;;4.03;2.60;;;;;;;;;;5071798;28;20464;-61
2023/05/29 11:30:50;;;;;;;3.10;1.97;;;25.00;57.80;;;;;;5055744;28;20478;-61
2023/05/29 11:33:25;;;;;;;4.13;2.70;;;25.00;59.60;;;;;;5052208;28;20459;-65
2023/05/29 11:35:58;;;;;;;2.87;1.90;;;25.20;59.80;;;;;;5061686;28;20431;-65
2023/05/29 11:38:28;;;;;;;4.27;3.10;;;25.20;59.10;;;;;;5058729;28;20479;-63
2023/05/29 11:40:56;;;;;;;3.53;2.17;;;;;;;;;;5062895;28;21150;-61
2023/05/29 11:43:23;;;;;;;3.10;2.30;;;;;;;;;;5065269;28;20547;-64
2023/05/29 11:45:50;;;;;;;5.30;2.40;;;;;;;;;;5063972;28;20470;-62
2023/05/29 11:48:17;;;;;;;3.70;2.27;;;;;;;;;;5064133;28;20473;-61
2023/05/29 11:50:44;;;;;;;3.30;2.53;;;;;;;;;;5071856;28;20853;-62
2023/05/29 11:53:13;;;;;;;8.90;1.87;;;25.70;56.40;;;;;;5071491;28;20478;-63
2023/05/29 11:55:40;;;;;;;4.37;2.63;;;;;;;;;;5069832;28;20562;-62
2023/05/29 11:58:07;;;;;;;3.17;2.17;;;;;;;;;;5061445;28;20482;-63
2023/05/29 12:00:36;;;;;;;2.70;2.03;;;25.60;58.20;;;;;;5069889;28;20527;-61
2023/05/29 12:03:04;;;;;;;2.73;1.93;;;25.40;56.40;;;;;;5069003;28;20463;-63
2023/05/29 12:05:31;;;;;;;3.27;2.17;;;;;;;;;;5063500;28;20438;-62
2023/05/29 12:08:01;;;;;;;3.07;2.30;;;25.50;55.80;;;;;;5060553;28;20917;-64
2023/05/29 12:10:29;;;;;;;2.90;2.20;;;25.30;57.70;;;;;;5060308;28;20455;-59
2023/05/29 12:13:02;;;;;;;2.20;1.87;;;25.80;57.30;;;;;;5070791;28;20538;-61
2023/05/29 12:15:29;;;;;;;3.10;2.10;;;;;;;;;;5061899;28;20443;-65
2023/05/29 12:17:58;;;;;;;2.80;2.27;;;25.80;57.20;;;;;;5054596;28;20474;-65
2023/05/29 12:20:28;;;;;;;14.03;2.63;;;25.60;57.30;;;;;;5057504;28;20483;-66
2023/05/29 12:23:01;;;;;;;4.47;3.10;;;25.30;57.60;;;;;;5037991;28;20459;-64
2023/05/29 12:25:30;;;;;;;4.17;2.63;;;25.00;57.90;;;;;;5060442;28;20439;-62
2023/05/29 12:27:57;;;;;;;5.90;1.93;;;24.70;55.80;;;;;;5072809;28;20467;-63
2023/05/29 12:30:25;;;;;;;4.43;2.43;;;;;;;;;;5071194;28;20463;-62
2023/05/29 12:32:53;;;;;;;3.20;2.10;;;24.40;59.40;;;;;;5059105;28;20538;-63
2023/05/29 12:35:21;;;;;;;4.37;2.40;;;24.40;58.20;;;;;;5048143;28;20958;-64
2023/05/29 12:37:49;;;;;;;2.27;1.90;;;24.40;58.50;;;;;;5057851;28;20850;-63
2023/05/29 12:40:17;;;;;;;2.77;2.20;;;;;;;;;;5060538;28;20485;-63
2023/05/29 12:42:45;;;;;;;4.10;2.20;;;24.70;59.70;;;;;;5068321;28;20470;-62
2023/05/29 12:45:13;;;;;;;4.10;2.63;;;;;;;;;;5074307;28;20494;-64
2023/05/29 12:47:46;;;;;;;3.67;2.30;;;;;;;;;;5064230;28;20538;-64
2023/05/29 12:50:24;;;;;;;3.50;1.83;;;24.70;93.50;;;;;;5064820;28;20467;-64
2023/05/29 12:52:55;;;;;;;3.60;2.50;;;24.70;59.90;;;;;;5066521;28;20447;-66
2023/05/29 12:55:23;;;;;;;6.77;2.47;;;;;;;;;;5062972;28;20501;-61
2023/05/29 12:57:51;;;;;;;1.90;1.50;;;24.70;60.70;;;;;;5062385;28;20860;-63
2023/05/29 13:00:19;;;;;;;3.10;2.13;;;24.70;60.00;;;;;;5066956;28;20491;-60
2023/05/29 13:02:47;;;;;;;3.47;2.37;;;;;;;;;;5075019;28;20432;-63
2023/05/29 13:05:15;;;;;;;4.53;2.87;;;;;;;;;;5074954;28;20439;-64
2023/05/29 13:07:42;;;;;;;2.37;2.07;;;;;;;;;;5074399;28;20420;-61
2023/05/29 13:10:10;;;;;;;2.90;2.20;;;24.40;57.90;;;;;;5072466;28;20439;-65
2023/05/29 13:12:37;;;;;;;6.77;2.93;;;;;;;;;;5074371;28;20521;-64
2023/05/29 13:15:06;;;;;;;4.13;2.20;;;;;;;;;;5074754;28;20478;-60
2023/05/29 13:17:33;;;;;;;5.77;1.70;;;;;;;;;;5070647;28;20459;-61
2023/05/29 13:20:01;;;;;;;2.47;2.27;;;24.50;60.00;;;;;;5065910;28;20574;-64
2023/05/29 13:22:31;;;;;;;3.20;2.70;;;;;;;;;;5064250;28;20506;-63
2023/05/29 13:24:59;;;;;;;3.87;2.03;;;;;;;;;;5066159;28;20778;-64
2023/05/29 13:27:26;;;;;;;2.67;1.87;;;;;;;;;;5064404;28;20463;-62
2023/05/29 13:29:53;;;;;;;4.73;2.10;;;;;;;;;;5069438;28;20435;-60
2023/05/29 13:32:22;;;;;;;4.23;2.13;;;;;;;;;;5063899;28;20475;-64
2023/05/29 13:34:49;;;;;;;2.50;1.83;;;;;;;;;;5039066;28;20444;-64
2023/05/29 13:37:18;;;;;;;2.93;2.50;;;;;;;;;;5055681;28;21183;-63
2023/05/29 13:39:46;;;;;;;2.63;1.80;;;;;;;;;;5065076;28;20486;-63
2023/05/29 13:42:13;;;;;;;4.30;2.63;;;;;;;;;;5070247;28;20494;-58
2023/05/29 13:44:40;;;;;;;2.70;2.23;;;;;;;;;;5056897;28;20452;-64
2023/05/29 13:47:07;;;;;;;4.00;2.47;;;24.80;55.10;;;;;;5065246;28;20501;-64
2023/05/29 13:49:38;;;;;;;7.70;2.60;;;24.80;59.10;;;;;;5074845;28;20502;-64
2023/05/29 13:52:05;;;;;;;8.90;2.20;;;;;;;;;;5068044;28;20456;-64
2023/05/29 13:54:35;;;;;;;3.73;2.00;;;;;;;;;;5054069;28;20437;-61
2023/05/29 13:57:03;;;;;;;3.40;3.00;;;;;;;;;;5072818;28;20743;-64
2023/05/29 13:59:30;;;;;;;4.33;2.73;;;;;;;;;;5053845;28;20488;-63
2023/05/29 14:01:57;;;;;;;4.13;2.30;;;;;;;;;;5060793;28;20463;-65
2023/05/29 14:04:25;;;;;;;3.63;2.13;;;;;;;;;;5068610;28;20554;-63
2023/05/29 14:06:54;;;;;;;4.37;3.47;;;24.70;59.20;;;;;;5062086;28;20513;-63
2023/05/29 14:09:26;;;;;;;12.80;8.63;;;;;;;;;;5073656;28;20467;-59